Terminal Aerodrome Forecast
Issued by NWS

Home | Current Version | Previous Version | Graphics & Text | Print | Product List | Glossary On
Versions: 1 2 3 4 5 6 7 8 9 10 11 12 13 14 15 16
000
FTUS43 KMPX 241135
TAFRNH
TAF
KRNH 241135Z 2412/2512 02015G23KT P6SM SCT025 OVC070
      TEMPO 2413/2417 3SM -SN BKN025 OVC040
     FM241700 01016G25KT P6SM -SN SCT025 OVC050
     FM242100 36014G23KT P6SM SCT025 OVC040=

USA.gov is the U.S. government's official web portal to all federal, state and local government web resources and services.